Aviation Digital Data Service (ADDS)

Output produced by METARs form (1554 UTC 23 April 2017)
found at http://www.aviationweather.gov/adds/metars/
 
TAF SCFA 231058Z 2312/2412 03002KT 9999 FEW015 TX20/2315Z TN15/2409Z 
     BECMG 2313/2314 21005KT BKN017 
     BECMG 2316/2318 20015KT FEW020 
     BECMG 2400/2402 16005KT BKN017
       
TAF SCAR 231055Z 2312/2412 10005KT 9999 SCT030 TX24/2316Z TN17/2408Z 
     BECMG 2313/2314 BKN030 
     BECMG 2315/2317 21012KT CAVOK 
     BECMG 2400/2402 02002KT 
     BECMG 2404/2406 09005KT
       
TAF SCBA 231015Z 2312/2412 30015KT 9999 BKN030 TX13/2319Z TN06/2410Z 
     TEMPO 2312/2314 8000 -SHRA 
     BECMG 2315/2316 30025KT 
     BECMG 2318/2320 30025G35KT 
     BECMG 2402/2404 30015KT 7000 -RA OVC025
       
TAF SCCF 231057Z 2312/2412 11017KT CAVOK TX21/2319Z TN04/2410Z 
     BECMG 2314/2315 09005KT 
     BECMG 2316/2318 28017KT 
     BECMG 2400/2402 25010KT 
     BECMG 2404/2406 10015KT
       
TAF SCIE 231030Z 2312/2412 23004KT CAVOK TX17/2318Z TN09/2410Z 
     BECMG 2314/2316 22012KT 
     TEMPO 2318/2322 FEW030 
     BECMG 2401/2403 22004KT
       
TAF SCAT 231058Z 2312/2412 18005KT 9999 OVC010 TX20/2318Z TN14/2309Z 
     BECMG 2314/2316 27010KT OVC015 
     BECMG 2318/2320 SCT025 
     BECMG 2322/2400 24003KT OVC015 
     BECMG 2404/2406 35005KT OVC008
       
TAF SCDA 231056Z 2312/2412 17005KT 9999 FEW030 SCT300 TX22/2317Z TN16 /2408Z 
     BECMG 2313/2314 BKN030 
     BECMG 2316/2318 FEW030 
     BECMG 2317/2319 22015KT CAVOK 
     BECMG 2400/2402 18005KT
       
TAF SCSE 231028Z 2312/2412 13004KT CAVOK TX21/2318Z TN11/2410Z 
     BECMG 2314/2316 27008KT 
     BECMG 2316/2318 30010KT 
     BECMG 2401/2403 13004KT 
     TEMPO 2406/2412 3000 BR SCT008 BKN010
       
TAF SCJO 231012Z 2312/2324 VRB02KT 9999 BKN060 TN07/2312Z TX16/2319Z 
     TEMPO 2312/2313 2000 BR SCT005 
     TEMPO 2314/2316 30005KT FEW060 
     BECMG 2317/2317 BKN030
       
TAF SCTE 231016Z 2312/2412 VRB02KT 9999 BKN060 TX15/2319Z TN08/2410Z 
     TEMPO 2312/2313 1500 BR SCT005 
     BECMG 2314/2316 35005KT BKN040 
     BECMG 2317/2319 OVC030 
     BECMG 2401/2403 03010KT 8000 -SHRA OVC025 
     BECMG 2405/2406 04020KT 5000 RA
       
TAF SCCI 231056Z 2312/2412 31005KT 9999 FEW040 TN01/2312Z TX09/2319Z 
     TEMPO 2312/2314 22004KT 
     PROB30 
     TEMPO 2312/2313 5000 BR FEW008 SCT015 
     BECMG 2312/2314 34007KT FEW020 SCT035 
     BECMG 2314/2316 03007KT 
     TEMPO 2317/2320 -SHRA 
     BECMG 2321/2323 06012KT SCT040 
     BECMG 2404/2406 07017KT 8000 FEW010 SCT025 BKN040 
     TEMPO 2409/2412 09017G27KT 6000 -RADZ FEW008 SCT015
       
TAF COR SCEL 231051Z 2312/2412 15004KT 8000 NSC TX22/2318Z TN10/2410Z 
     BECMG 2315/2317 18005KT SCT160 BKN200 
     BECMG 2318/2320 20012KT FEW140 BKN180 
     BECMG 2401/2403 15004KT CAVOK 
     TEMPO 2408/2412 7000 NSC
       
TAF SCVD 231012Z 2312/2324 VRB02KT 0800 FG OVC002 TN07/2312Z TX16/2319Z 
     BECMG 2314/2316 9999 NSW BKN005 
     BECMG 2317/2318 27005KT CAVOK 
     BECMG 2320/2321 BKN040